sensor_id;sensor_type;location;lat;lon;timestamp;temperature;humidity
27506;DHT22;14939;43.596;1.320;2024-01-30T00:02:16;10.40;99.90
27506;DHT22;14939;43.596;1.320;2024-01-30T00:04:41;10.30;99.90
27506;DHT22;14939;43.596;1.320;2024-01-30T00:07:07;10.30;99.90
27506;DHT22;14939;43.596;1.320;2024-01-30T00:09:33;10.30;99.90
27506;DHT22;14939;43.596;1.320;2024-01-30T00:11:59;10.30;99.90
27506;DHT22;14939;43.596;1.320;2024-01-30T00:14:24;10.30;99.90
27506;DHT22;14939;43.596;1.320;2024-01-30T00:16:51;10.40;99.90
27506;DHT22;14939;43.596;1.320;2024-01-30T00:19:16;10.30;99.90
27506;DHT22;14939;43.596;1.320;2024-01-30T00:21:42;10.30;99.90
27506;DHT22;14939;43.596;1.320;2024-01-30T00:24:08;10.30;99.90
27506;DHT22;14939;43.596;1.320;2024-01-30T00:26:34;10.20;99.90
27506;DHT22;14939;43.596;1.320;2024-01-30T00:29:00;10.30;99.90
27506;DHT22;14939;43.596;1.320;2024-01-30T00:31:26;10.30;99.90
27506;DHT22;14939;43.596;1.320;2024-01-30T00:33:51;10.20;99.90
27506;DHT22;14939;43.596;1.320;2024-01-30T00:36:17;10.30;99.90
27506;DHT22;14939;43.596;1.320;2024-01-30T00:38:43;10.30;99.90
27506;DHT22;14939;43.596;1.320;2024-01-30T00:41:09;10.30;99.90
27506;DHT22;14939;43.596;1.320;2024-01-30T00:43:35;10.30;99.90
27506;DHT22;14939;43.596;1.320;2024-01-30T00:46:01;10.30;99.90
27506;DHT22;14939;43.596;1.320;2024-01-30T00:48:26;10.30;99.90
27506;DHT22;14939;43.596;1.320;2024-01-30T00:50:52;10.30;99.90
27506;DHT22;14939;43.596;1.320;2024-01-30T00:53:18;10.20;99.90
27506;DHT22;14939;43.596;1.320;2024-01-30T00:55:43;10.20;99.90
27506;DHT22;14939;43.596;1.320;2024-01-30T00:58:09;10.20;99.90
27506;DHT22;14939;43.596;1.320;2024-01-30T01:00:35;10.20;99.90
27506;DHT22;14939;43.596;1.320;2024-01-30T01:03:01;10.20;99.90
27506;DHT22;14939;43.596;1.320;2024-01-30T01:05:27;10.20;99.90
27506;DHT22;14939;43.596;1.320;2024-01-30T01:07:53;10.20;99.90
27506;DHT22;14939;43.596;1.320;2024-01-30T01:10:19;10.20;99.90
27506;DHT22;14939;43.596;1.320;2024-01-30T01:12:45;10.20;99.90
27506;DHT22;14939;43.596;1.320;2024-01-30T01:15:11;10.20;99.90
27506;DHT22;14939;43.596;1.320;2024-01-30T01:17:38;10.20;99.90
27506;DHT22;14939;43.596;1.320;2024-01-30T01:20:05;10.20;99.90
27506;DHT22;14939;43.596;1.320;2024-01-30T01:22:32;10.10;99.90
27506;DHT22;14939;43.596;1.320;2024-01-30T01:24:58;10.20;99.90
27506;DHT22;14939;43.596;1.320;2024-01-30T01:27:24;10.20;99.90
27506;DHT22;14939;43.596;1.320;2024-01-30T01:29:50;10.20;99.90
27506;DHT22;14939;43.596;1.320;2024-01-30T01:32:16;10.20;99.90
27506;DHT22;14939;43.596;1.320;2024-01-30T01:34:42;10.20;99.90
27506;DHT22;14939;43.596;1.320;2024-01-30T01:37:07;10.30;99.90
27506;DHT22;14939;43.596;1.320;2024-01-30T01:39:33;10.20;99.90
27506;DHT22;14939;43.596;1.320;2024-01-30T01:41:59;10.20;99.90
27506;DHT22;14939;43.596;1.320;2024-01-30T01:44:24;10.20;99.90
27506;DHT22;14939;43.596;1.320;2024-01-30T01:46:51;10.20;99.90
27506;DHT22;14939;43.596;1.320;2024-01-30T01:49:18;10.30;99.90
27506;DHT22;14939;43.596;1.320;2024-01-30T01:51:45;10.40;99.90
27506;DHT22;14939;43.596;1.320;2024-01-30T01:54:14;10.40;99.90
27506;DHT22;14939;43.596;1.320;2024-01-30T01:56:42;10.40;99.90
27506;DHT22;14939;43.596;1.320;2024-01-30T01:59:09;10.50;99.90
27506;DHT22;14939;43.596;1.320;2024-01-30T02:01:37;10.50;99.90
27506;DHT22;14939;43.596;1.320;2024-01-30T02:04:04;10.50;99.90
27506;DHT22;14939;43.596;1.320;2024-01-30T02:06:30;10.50;99.90
27506;DHT22;14939;43.596;1.320;2024-01-30T02:08:56;10.60;99.90
27506;DHT22;14939;43.596;1.320;2024-01-30T02:11:22;10.70;99.90
27506;DHT22;14939;43.596;1.320;2024-01-30T02:13:49;10.70;99.90
27506;DHT22;14939;43.596;1.320;2024-01-30T02:16:14;10.70;99.90
27506;DHT22;14939;43.596;1.320;2024-01-30T02:18:40;10.70;99.90
27506;DHT22;14939;43.596;1.320;2024-01-30T02:21:11;10.70;99.90
27506;DHT22;14939;43.596;1.320;2024-01-30T02:23:38;10.70;99.90
27506;DHT22;14939;43.596;1.320;2024-01-30T02:26:05;10.70;99.90
27506;DHT22;14939;43.596;1.320;2024-01-30T02:28:30;10.70;99.90
27506;DHT22;14939;43.596;1.320;2024-01-30T02:30:56;10.70;99.90
27506;DHT22;14939;43.596;1.320;2024-01-30T02:33:21;10.80;99.90
27506;DHT22;14939;43.596;1.320;2024-01-30T02:35:48;10.80;99.90
27506;DHT22;14939;43.596;1.320;2024-01-30T02:38:15;10.80;99.90
27506;DHT22;14939;43.596;1.320;2024-01-30T02:40:40;10.80;99.90
27506;DHT22;14939;43.596;1.320;2024-01-30T02:43:06;10.90;99.90
27506;DHT22;14939;43.596;1.320;2024-01-30T02:45:31;10.90;99.90
27506;DHT22;14939;43.596;1.320;2024-01-30T02:47:57;11.00;99.90
27506;DHT22;14939;43.596;1.320;2024-01-30T02:50:23;10.90;99.90
27506;DHT22;14939;43.596;1.320;2024-01-30T02:52:48;10.90;99.90
27506;DHT22;14939;43.596;1.320;2024-01-30T02:55:14;10.90;99.90
27506;DHT22;14939;43.596;1.320;2024-01-30T02:57:42;11.00;99.90
27506;DHT22;14939;43.596;1.320;2024-01-30T03:00:08;10.90;99.90
27506;DHT22;14939;43.596;1.320;2024-01-30T03:02:35;10.90;99.90
27506;DHT22;14939;43.596;1.320;2024-01-30T03:05:01;10.90;99.90
27506;DHT22;14939;43.596;1.320;2024-01-30T03:07:29;10.90;99.90
27506;DHT22;14939;43.596;1.320;2024-01-30T03:09:54;11.00;99.90
27506;DHT22;14939;43.596;1.320;2024-01-30T03:12:21;10.90;99.90
27506;DHT22;14939;43.596;1.320;2024-01-30T03:14:46;10.90;99.90
27506;DHT22;14939;43.596;1.320;2024-01-30T03:17:12;10.90;99.90
27506;DHT22;14939;43.596;1.320;2024-01-30T03:19:38;10.90;99.90
27506;DHT22;14939;43.596;1.320;2024-01-30T03:22:04;11.00;99.90
27506;DHT22;14939;43.596;1.320;2024-01-30T03:24:29;11.00;99.90
27506;DHT22;14939;43.596;1.320;2024-01-30T03:26:56;11.00;99.90
27506;DHT22;14939;43.596;1.320;2024-01-30T03:29:21;11.00;99.90
27506;DHT22;14939;43.596;1.320;2024-01-30T03:31:47;11.00;99.90
27506;DHT22;14939;43.596;1.320;2024-01-30T03:34:12;11.00;99.90
27506;DHT22;14939;43.596;1.320;2024-01-30T03:36:38;11.10;99.90
27506;DHT22;14939;43.596;1.320;2024-01-30T03:39:04;11.10;99.90
27506;DHT22;14939;43.596;1.320;2024-01-30T03:41:29;11.10;99.90
27506;DHT22;14939;43.596;1.320;2024-01-30T03:43:55;11.10;99.90
27506;DHT22;14939;43.596;1.320;2024-01-30T03:46:21;11.10;99.90
27506;DHT22;14939;43.596;1.320;2024-01-30T03:48:46;11.10;99.90
27506;DHT22;14939;43.596;1.320;2024-01-30T03:51:12;11.20;99.90
27506;DHT22;14939;43.596;1.320;2024-01-30T03:53:44;11.10;99.90
27506;DHT22;14939;43.596;1.320;2024-01-30T03:56:12;11.10;99.90
27506;DHT22;14939;43.596;1.320;2024-01-30T03:58:39;11.20;99.90
27506;DHT22;14939;43.596;1.320;2024-01-30T04:01:04;11.20;99.90
27506;DHT22;14939;43.596;1.320;2024-01-30T04:03:30;11.20;99.90
27506;DHT22;14939;43.596;1.320;2024-01-30T04:05:56;11.20;99.90
27506;DHT22;14939;43.596;1.320;2024-01-30T04:08:21;11.20;99.90
27506;DHT22;14939;43.596;1.320;2024-01-30T04:10:47;11.20;99.90
27506;DHT22;14939;43.596;1.320;2024-01-30T04:13:13;11.20;99.90
27506;DHT22;14939;43.596;1.320;2024-01-30T04:15:39;11.10;99.90
27506;DHT22;14939;43.596;1.320;2024-01-30T04:18:05;11.10;99.90
27506;DHT22;14939;43.596;1.320;2024-01-30T04:20:30;11.10;99.90
27506;DHT22;14939;43.596;1.320;2024-01-30T04:22:56;11.00;99.90
27506;DHT22;14939;43.596;1.320;2024-01-30T04:25:22;11.10;99.90
27506;DHT22;14939;43.596;1.320;2024-01-30T04:27:48;11.10;99.90
27506;DHT22;14939;43.596;1.320;2024-01-30T04:30:13;11.10;99.90
27506;DHT22;14939;43.596;1.320;2024-01-30T04:32:39;11.10;99.90
27506;DHT22;14939;43.596;1.320;2024-01-30T04:35:05;11.10;99.90
27506;DHT22;14939;43.596;1.320;2024-01-30T04:37:31;11.00;99.90
27506;DHT22;14939;43.596;1.320;2024-01-30T04:39:57;10.80;99.90
27506;DHT22;14939;43.596;1.320;2024-01-30T04:42:22;10.80;99.90
27506;DHT22;14939;43.596;1.320;2024-01-30T04:44:48;10.80;99.90
27506;DHT22;14939;43.596;1.320;2024-01-30T04:47:14;10.70;99.90
27506;DHT22;14939;43.596;1.320;2024-01-30T04:49:39;10.70;99.90
27506;DHT22;14939;43.596;1.320;2024-01-30T04:52:06;10.70;99.90
27506;DHT22;14939;43.596;1.320;2024-01-30T04:54:32;10.70;99.90
27506;DHT22;14939;43.596;1.320;2024-01-30T04:56:57;10.70;99.90
27506;DHT22;14939;43.596;1.320;2024-01-30T04:59:24;10.70;99.90
27506;DHT22;14939;43.596;1.320;2024-01-30T05:01:49;10.80;99.90
27506;DHT22;14939;43.596;1.320;2024-01-30T05:04:15;10.90;99.90
27506;DHT22;14939;43.596;1.320;2024-01-30T05:06:41;10.90;99.90
27506;DHT22;14939;43.596;1.320;2024-01-30T05:09:06;11.00;99.90
27506;DHT22;14939;43.596;1.320;2024-01-30T05:11:40;10.90;99.90
27506;DHT22;14939;43.596;1.320;2024-01-30T05:14:06;11.00;99.90
27506;DHT22;14939;43.596;1.320;2024-01-30T05:16:32;11.00;99.90
27506;DHT22;14939;43.596;1.320;2024-01-30T05:18:58;11.00;99.90
27506;DHT22;14939;43.596;1.320;2024-01-30T05:21:24;11.00;99.90
27506;DHT22;14939;43.596;1.320;2024-01-30T05:23:50;11.10;99.90
27506;DHT22;14939;43.596;1.320;2024-01-30T05:26:16;11.00;99.90
27506;DHT22;14939;43.596;1.320;2024-01-30T05:28:42;11.00;99.90
27506;DHT22;14939;43.596;1.320;2024-01-30T05:31:10;11.00;99.90
27506;DHT22;14939;43.596;1.320;2024-01-30T05:33:35;11.00;99.90
27506;DHT22;14939;43.596;1.320;2024-01-30T05:36:01;11.00;99.90
27506;DHT22;14939;43.596;1.320;2024-01-30T05:38:27;11.00;99.90
27506;DHT22;14939;43.596;1.320;2024-01-30T05:40:52;11.00;99.90
27506;DHT22;14939;43.596;1.320;2024-01-30T05:43:18;10.90;99.90
27506;DHT22;14939;43.596;1.320;2024-01-30T05:45:44;10.90;99.90
27506;DHT22;14939;43.596;1.320;2024-01-30T05:48:09;10.80;99.90
27506;DHT22;14939;43.596;1.320;2024-01-30T05:50:35;10.90;99.90
27506;DHT22;14939;43.596;1.320;2024-01-30T05:53:01;10.90;99.90
27506;DHT22;14939;43.596;1.320;2024-01-30T05:55:26;11.00;99.90
27506;DHT22;14939;43.596;1.320;2024-01-30T05:57:52;11.00;99.90
27506;DHT22;14939;43.596;1.320;2024-01-30T06:00:18;10.90;99.90
27506;DHT22;14939;43.596;1.320;2024-01-30T06:02:44;10.80;99.90
27506;DHT22;14939;43.596;1.320;2024-01-30T06:05:09;10.80;99.90
27506;DHT22;14939;43.596;1.320;2024-01-30T06:07:35;10.80;99.90
27506;DHT22;14939;43.596;1.320;2024-01-30T06:10:01;10.70;99.90
27506;DHT22;14939;43.596;1.320;2024-01-30T06:12:27;10.70;99.90
27506;DHT22;14939;43.596;1.320;2024-01-30T06:14:53;10.70;99.90
27506;DHT22;14939;43.596;1.320;2024-01-30T06:17:22;10.60;99.90
27506;DHT22;14939;43.596;1.320;2024-01-30T06:19:48;10.70;99.90
27506;DHT22;14939;43.596;1.320;2024-01-30T06:22:13;10.70;99.90
27506;DHT22;14939;43.596;1.320;2024-01-30T06:24:39;10.80;99.90
27506;DHT22;14939;43.596;1.320;2024-01-30T06:27:05;10.80;99.90
27506;DHT22;14939;43.596;1.320;2024-01-30T06:29:30;10.70;99.90
27506;DHT22;14939;43.596;1.320;2024-01-30T06:31:56;10.60;99.90
27506;DHT22;14939;43.596;1.320;2024-01-30T06:34:22;10.60;99.90
27506;DHT22;14939;43.596;1.320;2024-01-30T06:36:48;10.50;99.90
27506;DHT22;14939;43.596;1.320;2024-01-30T06:39:14;10.40;99.90
27506;DHT22;14939;43.596;1.320;2024-01-30T06:41:39;10.40;99.90
27506;DHT22;14939;43.596;1.320;2024-01-30T06:44:05;10.40;99.90
27506;DHT22;14939;43.596;1.320;2024-01-30T06:46:32;10.30;99.90
27506;DHT22;14939;43.596;1.320;2024-01-30T06:48:58;10.30;99.90
27506;DHT22;14939;43.596;1.320;2024-01-30T06:51:23;10.30;99.90
27506;DHT22;14939;43.596;1.320;2024-01-30T06:53:49;10.40;99.90
27506;DHT22;14939;43.596;1.320;2024-01-30T06:56:15;10.40;99.90
27506;DHT22;14939;43.596;1.320;2024-01-30T06:58:42;10.40;99.90
27506;DHT22;14939;43.596;1.320;2024-01-30T07:01:07;10.30;99.90
27506;DHT22;14939;43.596;1.320;2024-01-30T07:03:33;10.40;99.90
27506;DHT22;14939;43.596;1.320;2024-01-30T07:05:59;10.50;99.90
27506;DHT22;14939;43.596;1.320;2024-01-30T07:08:24;10.50;99.90
27506;DHT22;14939;43.596;1.320;2024-01-30T07:10:50;10.50;99.90
27506;DHT22;14939;43.596;1.320;2024-01-30T07:13:15;10.50;99.90
27506;DHT22;14939;43.596;1.320;2024-01-30T07:15:42;10.50;99.90
27506;DHT22;14939;43.596;1.320;2024-01-30T07:18:08;10.50;99.90
27506;DHT22;14939;43.596;1.320;2024-01-30T07:20:35;10.50;99.90
27506;DHT22;14939;43.596;1.320;2024-01-30T07:23:01;10.50;99.90
27506;DHT22;14939;43.596;1.320;2024-01-30T07:25:26;10.50;99.90
27506;DHT22;14939;43.596;1.320;2024-01-30T07:27:53;10.60;99.90
27506;DHT22;14939;43.596;1.320;2024-01-30T07:30:19;10.70;99.90
27506;DHT22;14939;43.596;1.320;2024-01-30T07:32:46;10.70;99.90
27506;DHT22;14939;43.596;1.320;2024-01-30T07:35:12;10.70;99.90
27506;DHT22;14939;43.596;1.320;2024-01-30T07:37:37;10.60;99.90
27506;DHT22;14939;43.596;1.320;2024-01-30T07:40:03;10.70;99.90
27506;DHT22;14939;43.596;1.320;2024-01-30T07:42:29;10.70;99.90
27506;DHT22;14939;43.596;1.320;2024-01-30T07:44:55;10.70;99.90
27506;DHT22;14939;43.596;1.320;2024-01-30T07:47:20;10.80;99.90
27506;DHT22;14939;43.596;1.320;2024-01-30T07:49:46;10.80;99.90
27506;DHT22;14939;43.596;1.320;2024-01-30T07:52:13;10.90;99.90
27506;DHT22;14939;43.596;1.320;2024-01-30T07:54:38;10.90;99.90
27506;DHT22;14939;43.596;1.320;2024-01-30T07:57:04;11.00;99.90
27506;DHT22;14939;43.596;1.320;2024-01-30T07:59:30;11.10;99.90
27506;DHT22;14939;43.596;1.320;2024-01-30T08:01:55;11.10;99.90
27506;DHT22;14939;43.596;1.320;2024-01-30T08:04:21;11.10;99.90
27506;DHT22;14939;43.596;1.320;2024-01-30T08:06:47;11.30;99.90
27506;DHT22;14939;43.596;1.320;2024-01-30T08:09:12;11.40;99.90
27506;DHT22;14939;43.596;1.320;2024-01-30T08:11:38;11.50;99.90
27506;DHT22;14939;43.596;1.320;2024-01-30T08:14:03;11.50;99.90
27506;DHT22;14939;43.596;1.320;2024-01-30T08:16:29;11.50;99.90
27506;DHT22;14939;43.596;1.320;2024-01-30T08:18:55;11.50;99.90
27506;DHT22;14939;43.596;1.320;2024-01-30T08:21:23;11.50;99.90
27506;DHT22;14939;43.596;1.320;2024-01-30T08:23:48;11.60;99.90
27506;DHT22;14939;43.596;1.320;2024-01-30T08:26:14;11.60;99.90
27506;DHT22;14939;43.596;1.320;2024-01-30T08:28:39;11.70;99.90
27506;DHT22;14939;43.596;1.320;2024-01-30T08:31:05;11.80;99.90
27506;DHT22;14939;43.596;1.320;2024-01-30T08:33:31;11.90;99.90
27506;DHT22;14939;43.596;1.320;2024-01-30T08:35:57;12.00;99.90
27506;DHT22;14939;43.596;1.320;2024-01-30T08:38:22;12.10;99.90
27506;DHT22;14939;43.596;1.320;2024-01-30T08:40:49;12.10;99.90
27506;DHT22;14939;43.596;1.320;2024-01-30T08:43:15;12.20;99.90
27506;DHT22;14939;43.596;1.320;2024-01-30T08:45:40;12.30;99.90
27506;DHT22;14939;43.596;1.320;2024-01-30T08:48:07;12.50;99.90
27506;DHT22;14939;43.596;1.320;2024-01-30T08:50:33;12.50;99.90
27506;DHT22;14939;43.596;1.320;2024-01-30T08:52:59;12.60;99.90
27506;DHT22;14939;43.596;1.320;2024-01-30T08:55:24;12.70;99.90
27506;DHT22;14939;43.596;1.320;2024-01-30T08:57:50;12.80;99.90
27506;DHT22;14939;43.596;1.320;2024-01-30T09:00:17;12.90;99.90
27506;DHT22;14939;43.596;1.320;2024-01-30T09:02:43;12.90;99.90
27506;DHT22;14939;43.596;1.320;2024-01-30T09:05:09;12.90;99.90
27506;DHT22;14939;43.596;1.320;2024-01-30T09:07:34;12.80;99.90
27506;DHT22;14939;43.596;1.320;2024-01-30T09:10:00;12.70;99.90
27506;DHT22;14939;43.596;1.320;2024-01-30T09:12:25;12.70;99.90
27506;DHT22;14939;43.596;1.320;2024-01-30T09:14:51;12.70;99.90
27506;DHT22;14939;43.596;1.320;2024-01-30T09:17:17;12.70;99.90
27506;DHT22;14939;43.596;1.320;2024-01-30T09:19:42;12.70;99.90
27506;DHT22;14939;43.596;1.320;2024-01-30T09:22:08;12.70;99.90
27506;DHT22;14939;43.596;1.320;2024-01-30T09:24:34;12.70;99.90
27506;DHT22;14939;43.596;1.320;2024-01-30T09:27:00;12.70;99.90
27506;DHT22;14939;43.596;1.320;2024-01-30T09:29:25;12.70;99.90
27506;DHT22;14939;43.596;1.320;2024-01-30T09:31:51;12.70;99.90
27506;DHT22;14939;43.596;1.320;2024-01-30T09:34:17;12.70;99.90
27506;DHT22;14939;43.596;1.320;2024-01-30T09:36:43;12.80;99.90
27506;DHT22;14939;43.596;1.320;2024-01-30T09:39:08;12.80;99.90
27506;DHT22;14939;43.596;1.320;2024-01-30T09:41:40;12.80;99.90
27506;DHT22;14939;43.596;1.320;2024-01-30T09:44:07;12.80;99.90
27506;DHT22;14939;43.596;1.320;2024-01-30T09:46:34;12.90;99.90
27506;DHT22;14939;43.596;1.320;2024-01-30T09:49:02;12.90;99.90
27506;DHT22;14939;43.596;1.320;2024-01-30T09:51:29;12.80;99.90
27506;DHT22;14939;43.596;1.320;2024-01-30T09:53:56;12.80;99.90
27506;DHT22;14939;43.596;1.320;2024-01-30T09:56:22;12.80;99.90
27506;DHT22;14939;43.596;1.320;2024-01-30T09:58:47;12.80;99.90
27506;DHT22;14939;43.596;1.320;2024-01-30T10:01:14;12.80;99.90
27506;DHT22;14939;43.596;1.320;2024-01-30T10:03:44;12.80;99.90
27506;DHT22;14939;43.596;1.320;2024-01-30T10:06:10;12.80;99.90
27506;DHT22;14939;43.596;1.320;2024-01-30T10:08:36;12.80;99.90
27506;DHT22;14939;43.596;1.320;2024-01-30T10:11:01;12.80;99.90
27506;DHT22;14939;43.596;1.320;2024-01-30T10:13:29;12.80;99.90
27506;DHT22;14939;43.596;1.320;2024-01-30T10:15:54;12.80;99.90
27506;DHT22;14939;43.596;1.320;2024-01-30T10:18:22;12.80;99.90
27506;DHT22;14939;43.596;1.320;2024-01-30T10:20:47;12.90;99.90
27506;DHT22;14939;43.596;1.320;2024-01-30T10:23:13;12.90;99.90
27506;DHT22;14939;43.596;1.320;2024-01-30T10:25:39;13.00;99.90
27506;DHT22;14939;43.596;1.320;2024-01-30T10:28:05;12.90;99.90
27506;DHT22;14939;43.596;1.320;2024-01-30T10:30:30;12.90;99.90
27506;DHT22;14939;43.596;1.320;2024-01-30T10:32:56;12.90;99.90
27506;DHT22;14939;43.596;1.320;2024-01-30T10:35:22;13.00;99.90
27506;DHT22;14939;43.596;1.320;2024-01-30T10:37:48;13.00;99.90
27506;DHT22;14939;43.596;1.320;2024-01-30T10:40:14;13.10;99.90
27506;DHT22;14939;43.596;1.320;2024-01-30T10:42:45;13.20;99.90
27506;DHT22;14939;43.596;1.320;2024-01-30T10:45:14;13.20;99.90
27506;DHT22;14939;43.596;1.320;2024-01-30T10:47:50;13.30;99.90
27506;DHT22;14939;43.596;1.320;2024-01-30T10:50:16;13.30;99.90
27506;DHT22;14939;43.596;1.320;2024-01-30T10:52:42;13.40;99.90
27506;DHT22;14939;43.596;1.320;2024-01-30T10:55:10;13.40;99.90
27506;DHT22;14939;43.596;1.320;2024-01-30T10:57:36;13.40;99.90
27506;DHT22;14939;43.596;1.320;2024-01-30T11:00:04;13.40;99.90
27506;DHT22;14939;43.596;1.320;2024-01-30T11:02:40;13.50;99.90
27506;DHT22;14939;43.596;1.320;2024-01-30T11:05:07;13.60;99.90
27506;DHT22;14939;43.596;1.320;2024-01-30T11:07:34;13.70;99.90
27506;DHT22;14939;43.596;1.320;2024-01-30T11:12:30;13.80;99.90
27506;DHT22;14939;43.596;1.320;2024-01-30T11:15:15;13.80;99.90
27506;DHT22;14939;43.596;1.320;2024-01-30T11:20:18;13.90;99.90
27506;DHT22;14939;43.596;1.320;2024-01-30T11:22:46;14.00;99.90
27506;DHT22;14939;43.596;1.320;2024-01-30T11:25:13;14.00;99.90
27506;DHT22;14939;43.596;1.320;2024-01-30T11:27:39;14.10;99.90
27506;DHT22;14939;43.596;1.320;2024-01-30T11:30:06;14.00;99.90
27506;DHT22;14939;43.596;1.320;2024-01-30T11:32:33;14.00;99.90
27506;DHT22;14939;43.596;1.320;2024-01-30T11:34:59;14.10;99.90
27506;DHT22;14939;43.596;1.320;2024-01-30T11:37:25;14.10;99.90
27506;DHT22;14939;43.596;1.320;2024-01-30T11:39:53;14.20;99.90
27506;DHT22;14939;43.596;1.320;2024-01-30T11:42:21;14.40;99.90
27506;DHT22;14939;43.596;1.320;2024-01-30T11:44:47;14.40;99.90
27506;DHT22;14939;43.596;1.320;2024-01-30T11:47:14;14.40;99.90
27506;DHT22;14939;43.596;1.320;2024-01-30T11:49:40;14.30;99.90
27506;DHT22;14939;43.596;1.320;2024-01-30T11:52:05;14.20;99.90
27506;DHT22;14939;43.596;1.320;2024-01-30T11:54:31;14.30;99.90
27506;DHT22;14939;43.596;1.320;2024-01-30T11:56:57;14.20;99.90
27506;DHT22;14939;43.596;1.320;2024-01-30T11:59:22;14.20;99.90
27506;DHT22;14939;43.596;1.320;2024-01-30T12:01:48;14.30;99.90
27506;DHT22;14939;43.596;1.320;2024-01-30T12:04:15;14.20;99.90
27506;DHT22;14939;43.596;1.320;2024-01-30T12:06:40;14.20;99.90
27506;DHT22;14939;43.596;1.320;2024-01-30T12:09:06;14.30;99.90
27506;DHT22;14939;43.596;1.320;2024-01-30T12:11:47;14.30;99.90
27506;DHT22;14939;43.596;1.320;2024-01-30T12:14:14;14.30;99.90
27506;DHT22;14939;43.596;1.320;2024-01-30T12:16:40;14.30;99.90
27506;DHT22;14939;43.596;1.320;2024-01-30T12:19:07;14.40;99.90
27506;DHT22;14939;43.596;1.320;2024-01-30T12:21:34;14.30;99.90
27506;DHT22;14939;43.596;1.320;2024-01-30T12:24:00;14.40;99.90
27506;DHT22;14939;43.596;1.320;2024-01-30T12:26:26;14.30;99.90
27506;DHT22;14939;43.596;1.320;2024-01-30T12:28:55;14.30;99.90
27506;DHT22;14939;43.596;1.320;2024-01-30T12:31:28;14.40;99.90
27506;DHT22;14939;43.596;1.320;2024-01-30T12:33:53;14.40;99.90
27506;DHT22;14939;43.596;1.320;2024-01-30T12:36:20;14.40;99.90
27506;DHT22;14939;43.596;1.320;2024-01-30T12:38:48;14.40;99.90
27506;DHT22;14939;43.596;1.320;2024-01-30T12:41:14;14.50;99.90
27506;DHT22;14939;43.596;1.320;2024-01-30T12:43:39;14.60;99.90
27506;DHT22;14939;43.596;1.320;2024-01-30T12:46:05;14.70;99.90
27506;DHT22;14939;43.596;1.320;2024-01-30T12:48:31;14.60;99.90
27506;DHT22;14939;43.596;1.320;2024-01-30T12:50:57;14.60;99.90
27506;DHT22;14939;43.596;1.320;2024-01-30T12:53:23;14.70;99.90
27506;DHT22;14939;43.596;1.320;2024-01-30T12:55:48;14.70;99.90
27506;DHT22;14939;43.596;1.320;2024-01-30T12:58:15;14.80;99.90
27506;DHT22;14939;43.596;1.320;2024-01-30T13:00:41;14.90;99.90
27506;DHT22;14939;43.596;1.320;2024-01-30T13:03:09;14.90;99.90
27506;DHT22;14939;43.596;1.320;2024-01-30T13:05:35;14.90;99.90
27506;DHT22;14939;43.596;1.320;2024-01-30T13:08:01;14.80;99.90
27506;DHT22;14939;43.596;1.320;2024-01-30T13:10:26;14.80;99.90
27506;DHT22;14939;43.596;1.320;2024-01-30T13:12:53;14.90;99.90
27506;DHT22;14939;43.596;1.320;2024-01-30T13:15:18;14.90;99.90
27506;DHT22;14939;43.596;1.320;2024-01-30T13:17:44;15.00;99.90
27506;DHT22;14939;43.596;1.320;2024-01-30T13:20:13;15.00;99.90
27506;DHT22;14939;43.596;1.320;2024-01-30T13:22:43;15.00;99.90
27506;DHT22;14939;43.596;1.320;2024-01-30T13:25:08;14.90;99.90
27506;DHT22;14939;43.596;1.320;2024-01-30T13:27:34;15.00;99.90
27506;DHT22;14939;43.596;1.320;2024-01-30T13:30:00;15.00;99.90
27506;DHT22;14939;43.596;1.320;2024-01-30T13:32:25;15.00;99.90
27506;DHT22;14939;43.596;1.320;2024-01-30T13:34:51;15.00;99.90
27506;DHT22;14939;43.596;1.320;2024-01-30T13:37:17;15.00;99.90
27506;DHT22;14939;43.596;1.320;2024-01-30T13:39:42;15.10;99.90
27506;DHT22;14939;43.596;1.320;2024-01-30T13:42:08;15.10;99.90
27506;DHT22;14939;43.596;1.320;2024-01-30T13:44:35;15.00;99.90
27506;DHT22;14939;43.596;1.320;2024-01-30T13:47:01;15.10;99.90
27506;DHT22;14939;43.596;1.320;2024-01-30T13:49:27;15.10;99.90
27506;DHT22;14939;43.596;1.320;2024-01-30T13:51:53;15.10;99.90
27506;DHT22;14939;43.596;1.320;2024-01-30T13:54:18;15.00;99.90
27506;DHT22;14939;43.596;1.320;2024-01-30T13:56:44;15.10;99.90
27506;DHT22;14939;43.596;1.320;2024-01-30T13:59:10;15.20;99.90
27506;DHT22;14939;43.596;1.320;2024-01-30T14:01:36;15.20;99.90
27506;DHT22;14939;43.596;1.320;2024-01-30T14:04:01;15.20;99.90
27506;DHT22;14939;43.596;1.320;2024-01-30T14:06:27;15.20;99.90
27506;DHT22;14939;43.596;1.320;2024-01-30T14:08:53;15.20;99.90
27506;DHT22;14939;43.596;1.320;2024-01-30T14:11:19;15.30;99.90
27506;DHT22;14939;43.596;1.320;2024-01-30T14:13:44;15.30;99.90
27506;DHT22;14939;43.596;1.320;2024-01-30T14:16:10;15.30;99.90
27506;DHT22;14939;43.596;1.320;2024-01-30T14:18:37;15.40;99.90
27506;DHT22;14939;43.596;1.320;2024-01-30T14:21:03;15.30;99.90
27506;DHT22;14939;43.596;1.320;2024-01-30T14:23:28;15.30;99.90
27506;DHT22;14939;43.596;1.320;2024-01-30T14:25:54;15.30;99.90
27506;DHT22;14939;43.596;1.320;2024-01-30T14:28:19;15.30;99.90
27506;DHT22;14939;43.596;1.320;2024-01-30T14:30:45;15.30;99.90
27506;DHT22;14939;43.596;1.320;2024-01-30T14:33:11;15.50;99.90
27506;DHT22;14939;43.596;1.320;2024-01-30T14:35:37;15.40;99.90
27506;DHT22;14939;43.596;1.320;2024-01-30T14:38:03;15.40;99.90
27506;DHT22;14939;43.596;1.320;2024-01-30T14:40:30;15.40;99.90
27506;DHT22;14939;43.596;1.320;2024-01-30T14:42:56;15.50;99.90
27506;DHT22;14939;43.596;1.320;2024-01-30T14:45:22;15.40;99.90
27506;DHT22;14939;43.596;1.320;2024-01-30T14:47:47;15.40;99.90
27506;DHT22;14939;43.596;1.320;2024-01-30T14:50:13;15.30;99.90
27506;DHT22;14939;43.596;1.320;2024-01-30T14:52:42;15.20;99.90
27506;DHT22;14939;43.596;1.320;2024-01-30T14:55:07;15.10;99.90
27506;DHT22;14939;43.596;1.320;2024-01-30T14:57:34;15.10;99.90
27506;DHT22;14939;43.596;1.320;2024-01-30T15:00:00;15.10;99.90
27506;DHT22;14939;43.596;1.320;2024-01-30T15:02:26;15.00;99.90
27506;DHT22;14939;43.596;1.320;2024-01-30T15:04:51;15.00;99.90
27506;DHT22;14939;43.596;1.320;2024-01-30T15:07:17;14.90;99.90
27506;DHT22;14939;43.596;1.320;2024-01-30T15:09:43;14.90;99.90
27506;DHT22;14939;43.596;1.320;2024-01-30T15:12:09;14.90;99.90
27506;DHT22;14939;43.596;1.320;2024-01-30T15:14:34;15.00;99.90
27506;DHT22;14939;43.596;1.320;2024-01-30T15:17:00;14.90;99.90
27506;DHT22;14939;43.596;1.320;2024-01-30T15:19:27;14.80;99.90
27506;DHT22;14939;43.596;1.320;2024-01-30T15:21:52;14.80;99.90
27506;DHT22;14939;43.596;1.320;2024-01-30T15:24:18;14.70;99.90
27506;DHT22;14939;43.596;1.320;2024-01-30T15:26:45;14.60;99.90
27506;DHT22;14939;43.596;1.320;2024-01-30T15:29:11;14.50;99.90